Accueil
METAR-TAF:

METAR-TAF

Aéroports :

Aérodrome d'Amborovy

Majunga, Madagascar

latitude: 15-40S, longitude: 046-21E, altitude: 26 m

Observation

Le bulletin a été fait il y a 41 minutes, à 02:00 UTC
Vent 4 kt de sud-est
Température 20°C
Humidité 78%
Pression 1019 hPa
Visibilité 10 km ou plus
Quelques nuages à une hauteur de 4000 ft

METAR: FMNM 240200Z 14004KT 9999 FEW040 20/16 Q1019

Heure: 05:41 (02:41 UTC)

Prévision

Le bulletin a été fait il y a 3 heures et 41 minutes, à 23:00 UTC
Prévision valable du 24 à 00 UTC au 24 à 24 UTC
Vent 8 kt de est/sud-est
Visibilité 10 km ou plus
Quelques nuages à une hauteur de 2300 ft
Evoluant progressivement
du 24 à 09 UTC au 24 à 11 UTC
Vent 10 kt de nord/nord-ouest
Evoluant progressivement
du 24 à 18 UTC au 24 à 20 UTC
Vent 6 kt de sud-est

TAF: FMNM 232300Z 2400/2424 12008KT 9999 FEW023 BECMG 2409/2411 34010KT BECMG 2418/2420 14006KT

Observations et prévisions météorologiques de plus de 4000 aéroports (messages METAR et TAF).

Les stations disponibles sont représentées par des disques jaunes et rouges sur la carte.

Passer la souris dessus pour voir le nom de la station.

Cliquer dessus pour voir les observations et prévisions météorologiques.

Pour changer de carte: cliquez sur les boutons verts avec une croix noire pour zoomer, sur le bouton vert avec un tiret pour effectuer un zoom arrière, ou sur les flèches vertes pour les cartes adjacentes.


METAR-TAF: